Time;durP1;ratioP1;P1;durP2;ratioP2;P2;SDS_P1;SDS_P2;PMS_P1;PMS_P2;Temp;Humidity;BMP_temperature;BMP_pressure;BME280_temperature;BME280_humidity;BME280_pressure;Samples;Min_cycle;Max_cycle;Signal;HPM_P1;HPM_P2
2022/11/26 07:24:39;;;;;;;19.90;11.37;;;7.30;93.60;;;;;;5110440;27;20388;-66
2022/11/26 07:27:05;;;;;;;15.67;6.93;;;7.90;93.60;;;;;;5110535;28;20027;-66
2022/11/26 07:29:30;;;;;;;17.83;8.47;;;7.90;93.20;;;;;;5110703;28;20442;-66
2022/11/26 07:31:56;;;;;;;18.93;10.13;;;8.00;92.90;;;;;;5110453;28;20046;-67
2022/11/26 07:34:21;;;;;;;14.60;7.87;;;8.00;92.80;;;;;;5110535;28;20031;-66
2022/11/26 07:36:47;;;;;;;18.07;9.20;;;8.10;92.40;;;;;;5110580;28;20028;-66
2022/11/26 07:39:13;;;;;;;17.90;9.10;;;8.10;92.20;;;;;;5110465;28;20024;-66
2022/11/26 07:41:38;;;;;;;20.87;9.40;;;8.10;92.20;;;;;;5110178;28;20028;-66
2022/11/26 07:44:04;;;;;;;23.23;12.90;;;8.20;92.20;;;;;;5110549;28;20477;-69
2022/11/26 07:46:29;;;;;;;18.60;10.23;;;8.20;92.30;;;;;;5110342;28;20028;-66
2022/11/26 07:48:55;;;;;;;10.73;5.30;;;8.20;92.40;;;;;;5110336;28;20110;-66
2022/11/26 07:51:27;;;;;;;7.63;4.20;;;8.20;92.50;;;;;;5109784;28;20393;-66
2022/11/26 07:53:54;;;;;;;8.13;4.13;;;8.30;92.60;;;;;;5109193;28;20069;-66
2022/11/26 07:56:20;;;;;;;7.70;4.20;;;8.30;92.60;;;;;;5109609;28;20045;-67
2022/11/26 07:58:46;;;;;;;7.77;4.10;;;8.30;92.50;;;;;;5109476;28;20029;-66
2022/11/26 08:01:14;;;;;;;40.60;22.07;;;8.30;92.50;;;;;;5110290;28;20733;-70
2022/11/26 08:03:43;;;;;;;19.30;9.90;;;8.30;92.50;;;;;;5110022;28;20034;-66
2022/11/26 08:06:12;;;;;;;9.70;6.10;;;8.40;92.50;;;;;;5109360;28;20484;-66
2022/11/26 08:08:39;;;;;;;16.13;8.07;;;8.40;92.50;;;;;;5109586;28;20122;-66
2022/11/26 08:11:13;;;;;;;8.93;5.13;;;8.50;92.40;;;;;;5109320;28;20485;-66
2022/11/26 08:13:38;;;;;;;10.67;5.97;;;8.50;92.20;;;;;;5108135;28;20035;-66
2022/11/26 08:16:04;;;;;;;9.13;5.20;;;8.50;92.20;;;;;;5109799;28;20474;-66
2022/11/26 08:18:30;;;;;;;9.03;4.40;;;8.50;92.20;;;;;;5109812;28;20030;-66
2022/11/26 08:20:56;;;;;;;7.87;4.20;;;8.50;92.20;;;;;;5109608;28;20457;-66
2022/11/26 08:23:23;;;;;;;9.50;4.20;;;8.60;92.30;;;;;;5108956;28;20056;-66
2022/11/26 08:25:50;;;;;;;14.30;4.43;;;8.60;92.40;;;;;;5095932;28;20099;-66
2022/11/26 08:28:16;;;;;;;8.33;4.30;;;8.70;92.50;;;;;;5096079;28;20111;-66
2022/11/26 08:30:42;;;;;;;8.83;4.33;;;8.70;92.50;;;;;;5095854;28;20024;-67
2022/11/26 08:33:07;;;;;;;7.17;3.93;;;8.70;92.60;;;;;;5096167;28;20055;-66
2022/11/26 08:35:36;;;;;;;6.90;4.23;;;8.70;92.60;;;;;;5095836;28;20093;-67
2022/11/26 08:38:03;;;;;;;7.20;4.70;;;8.80;92.60;;;;;;5095806;28;20504;-66
2022/11/26 08:40:29;;;;;;;9.17;5.30;;;8.80;92.80;;;;;;5095911;28;20020;-66
2022/11/26 08:42:54;;;;;;;18.60;8.17;;;8.80;92.90;;;;;;5095609;28;20050;-67
2022/11/26 08:45:20;;;;;;;10.57;5.50;;;8.80;92.90;;;;;;5095942;28;20062;-67
2022/11/26 08:47:46;;;;;;;9.07;4.17;;;8.80;93.10;;;;;;5095737;28;20088;-66
2022/11/26 08:50:12;;;;;;;13.03;4.30;;;8.80;93.00;;;;;;5095484;28;20440;-66
2022/11/26 08:52:37;;;;;;;9.53;4.40;;;8.80;92.70;;;;;;5095448;28;20484;-66
2022/11/26 08:55:03;;;;;;;13.70;4.27;;;8.90;92.80;;;;;;5095457;28;20035;-66
2022/11/26 08:57:29;;;;;;;11.00;3.90;;;8.90;92.80;;;;;;5095584;28;20024;-66
2022/11/26 08:59:55;;;;;;;6.93;3.63;;;8.90;92.90;;;;;;5095344;28;20488;-66
2022/11/26 09:02:21;;;;;;;6.37;3.93;;;9.00;92.90;;;;;;5095136;28;20456;-66
2022/11/26 09:04:47;;;;;;;12.47;5.63;;;9.00;92.90;;;;;;5095069;28;20427;-66
2022/11/26 09:07:13;;;;;;;7.60;4.73;;;9.00;93.20;;;;;;5095302;28;20054;-66
2022/11/26 09:09:39;;;;;;;9.03;4.97;;;9.00;93.60;;;;;;5095364;28;20024;-67
2022/11/26 09:12:05;;;;;;;7.43;2.23;;;9.00;93.50;;;;;;5095243;28;20031;-66
2022/11/26 09:14:39;;;;;;;9.43;3.33;;;9.10;92.00;;;;;;5095072;28;20012;-66
2022/11/26 09:17:06;;;;;;;8.60;3.87;;;9.10;91.30;;;;;;5095178;28;20027;-66
2022/11/26 09:19:31;;;;;;;5.60;3.53;;;9.10;91.40;;;;;;5095102;28;20452;-66
2022/11/26 09:21:58;;;;;;;7.47;2.53;;;9.20;91.30;;;;;;5095024;28;20052;-66
2022/11/26 09:24:24;;;;;;;7.70;2.03;;;9.20;90.00;;;;;;5094576;28;20055;-66
2022/11/26 09:26:50;;;;;;;3.33;1.70;;;9.30;89.00;;;;;;5094790;28;20070;-66
2022/11/26 09:29:19;;;;;;;1.87;1.20;;;9.30;86.30;;;;;;5094793;28;20032;-66
2022/11/26 09:31:46;;;;;;;3.03;1.30;;;9.30;83.00;;;;;;5094792;28;20020;-66
2022/11/26 09:34:12;;;;;;;2.73;1.60;;;9.40;81.60;;;;;;5094691;28;20593;-66
2022/11/26 09:36:38;;;;;;;4.83;1.33;;;9.40;81.20;;;;;;5092527;28;20032;-66
2022/11/26 09:39:05;;;;;;;2.60;1.60;;;9.50;81.50;;;;;;5094535;28;20024;-66
2022/11/26 09:41:33;;;;;;;5.63;1.33;;;9.50;80.30;;;;;;5094506;28;20077;-66
2022/11/26 09:44:02;;;;;;;3.57;1.50;;;9.50;79.80;;;;;;5094326;28;20066;-66
2022/11/26 09:46:35;;;;;;;3.23;1.60;;;9.60;78.90;;;;;;5094599;28;20397;-66
2022/11/26 09:49:02;;;;;;;1.93;1.20;;;9.60;78.90;;;;;;5094398;28;20031;-66
2022/11/26 09:51:29;;;;;;;3.83;1.10;;;9.70;79.40;;;;;;5094470;28;20028;-69
2022/11/26 09:53:55;;;;;;;2.20;1.10;;;9.70;77.10;;;;;;5094263;28;20074;-66
2022/11/26 09:56:25;;;;;;;4.10;1.30;;;9.80;78.60;;;;;;5094332;28;20077;-66
2022/11/26 09:59:00;;;;;;;4.07;1.20;;;9.80;77.00;;;;;;5094275;28;20027;-67
2022/11/26 10:01:26;;;;;;;2.07;1.23;;;9.80;76.50;;;;;;5094419;28;20027;-66
2022/11/26 10:03:52;;;;;;;2.53;1.10;;;9.90;76.90;;;;;;5094476;28;20028;-66
2022/11/26 10:06:36;;;;;;;3.83;1.57;;;9.90;77.10;;;;;;5094228;28;20444;-67
2022/11/26 10:09:17;;;;;;;2.70;1.60;;;10.00;79.50;;;;;;5094293;28;20115;-66
2022/11/26 10:12:09;;;;;;;5.87;1.80;;;10.00;79.40;;;;;;5093926;28;20114;-67
2022/11/26 10:14:49;;;;;;;3.20;2.20;;;10.10;80.10;;;;;;5093980;28;20099;-66
2022/11/26 10:17:39;;;;;;;3.70;2.33;;;10.10;80.60;;;;;;5093984;28;20027;-71
2022/11/26 10:20:26;;;;;;;6.67;2.07;;;10.10;80.20;;;;;;5094149;28;20382;-66
2022/11/26 10:22:59;;;;;;;3.87;1.90;;;10.20;81.30;;;;;;5092215;28;20405;-66
2022/11/26 10:25:33;;;;;;;11.03;2.43;;;10.20;80.60;;;;;;5093817;28;20436;-66
2022/11/26 10:28:00;;;;;;;7.25;1.70;;;10.30;80.40;;;;;;5093825;28;20513;-66
2022/11/26 10:30:28;;;;;;;5.32;1.60;;;10.30;78.70;;;;;;5093674;28;20043;-66
2022/11/26 10:32:56;;;;;;;7.15;1.95;;;10.40;78.90;;;;;;5093647;28;20043;-67
2022/11/26 10:35:26;;;;;;;10.82;1.80;;;10.40;79.40;;;;;;5093884;28;20020;-66
2022/11/26 10:37:54;;;;;;;6.45;1.75;;;10.40;79.60;;;;;;5093472;28;20024;-66
2022/11/26 10:40:28;;;;;;;3.05;1.50;;;10.50;78.80;;;;;;5093635;28;20015;-67
2022/11/26 10:42:57;;;;;;;3.08;1.40;;;10.50;77.10;;;;;;5093393;28;20047;-68
2022/11/26 10:45:35;;;;;;;2.47;1.60;;;10.50;77.90;;;;;;5093535;28;20020;-66
2022/11/26 10:48:29;;;;;;;5.28;1.40;;;10.60;75.00;;;;;;5093292;28;20024;-69
2022/11/26 10:51:05;;;;;;;2.30;1.40;;;10.60;74.00;;;;;;5093259;28;20020;-66
2022/11/26 10:53:52;;;;;;;3.85;1.70;;;10.60;74.60;;;;;;5093538;28;20028;-66
2022/11/26 10:56:22;;;;;;;3.05;1.48;;;10.70;74.90;;;;;;5093568;28;20033;-65
2022/11/26 10:58:51;;;;;;;2.97;1.77;;;10.70;75.40;;;;;;5093440;28;20020;-66
2022/11/26 11:01:17;;;;;;;3.88;1.80;;;10.80;75.30;;;;;;5093082;28;20507;-67
2022/11/26 11:03:52;;;;;;;8.07;1.70;;;10.80;74.00;;;;;;5093156;28;20040;-66
2022/11/26 11:06:17;;;;;;;4.35;1.70;;;10.80;75.30;;;;;;5093347;28;20466;-66
2022/11/26 11:08:45;;;;;;;3.20;1.63;;;10.90;75.20;;;;;;5093329;28;20115;-66
2022/11/26 11:11:30;;;;;;;5.07;2.00;;;10.90;75.70;;;;;;5093153;28;20024;-67
2022/11/26 11:13:56;;;;;;;5.40;1.90;;;10.90;77.40;;;;;;5093222;28;20031;-70
2022/11/26 11:16:36;;;;;;;3.63;1.90;;;11.00;75.10;;;;;;5093117;28;20020;-66
2022/11/26 11:19:16;;;;;;;4.82;1.48;;;11.00;74.70;;;;;;5092990;28;20549;-66
2022/11/26 11:21:44;;;;;;;4.57;2.10;;;11.00;74.50;;;;;;5093020;28;20091;-66
2022/11/26 11:24:20;;;;;;;6.20;1.90;;;11.00;72.30;;;;;;5092902;28;20075;-66
2022/11/26 11:26:49;;;;;;;3.63;2.17;;;11.00;71.90;;;;;;5093238;28;20028;-66
2022/11/26 11:29:35;;;;;;;3.05;1.92;;;11.00;71.30;;;;;;5092952;28;20445;-66
2022/11/26 11:32:22;;;;;;;3.65;1.98;;;11.10;72.20;;;;;;5092790;28;20039;-66
2022/11/26 11:34:48;;;;;;;3.70;1.75;;;11.10;71.80;;;;;;5092752;28;20043;-66
2022/11/26 11:37:16;;;;;;;4.35;1.90;;;11.00;72.00;;;;;;5093029;28;20032;-67
2022/11/26 11:39:42;;;;;;;6.45;1.90;;;11.00;72.50;;;;;;5092816;28;20025;-67
2022/11/26 11:42:34;;;;;;;2.70;1.67;;;11.10;72.20;;;;;;5092885;28;20082;-69
2022/11/26 11:45:03;;;;;;;2.85;1.80;;;11.10;73.40;;;;;;5091875;28;20052;-66
2022/11/26 11:47:42;;;;;;;2.60;1.70;;;11.20;73.20;;;;;;5092903;28;20028;-66
2022/11/26 11:50:22;;;;;;;4.57;2.35;;;11.30;72.70;;;;;;5093142;28;20501;-66
2022/11/26 11:53:10;;;;;;;3.67;2.00;;;11.30;70.80;;;;;;5092752;28;20024;-66
2022/11/26 11:55:38;;;;;;;5.13;1.58;;;11.30;71.20;;;;;;5092631;28;20020;-66
2022/11/26 11:58:36;;;;;;;2.97;1.77;;;11.40;71.10;;;;;;5092779;28;20028;-66
2022/11/26 12:01:05;;;;;;;6.22;2.10;;;11.40;70.30;;;;;;5096573;28;20105;-69
2022/11/26 12:03:39;;;;;;;4.32;2.15;;;11.50;70.90;;;;;;5096652;28;20036;-66
2022/11/26 12:06:16;;;;;;;3.67;1.75;;;11.50;70.70;;;;;;5096151;28;20107;-66
2022/11/26 12:08:44;;;;;;;4.50;1.50;;;11.60;70.80;;;;;;5096668;28;20501;-66
2022/11/26 12:11:48;;;;;;;3.67;1.80;;;11.60;69.00;;;;;;5096537;28;20024;-66
2022/11/26 12:14:26;;;;;;;4.03;1.95;;;11.70;70.20;;;;;;5074053;28;20021;-66
2022/11/26 12:17:25;;;;;;;3.75;1.90;;;11.60;69.70;;;;;;5073606;28;20143;-67
2022/11/26 12:20:01;;;;;;;8.52;2.53;;;11.60;69.30;;;;;;5091190;28;20073;-67
2022/11/26 12:22:40;;;;;;;10.45;1.80;;;11.70;69.60;;;;;;5096200;28;20028;-66
2022/11/26 12:25:19;;;;;;;3.60;1.60;;;11.70;69.50;;;;;;5095873;28;20052;-67
2022/11/26 12:27:59;;;;;;;4.72;2.15;;;11.80;69.40;;;;;;5095940;28;20362;-66
2022/11/26 12:30:47;;;;;;;5.32;1.73;;;11.80;69.20;;;;;;5096100;28;20013;-66
2022/11/26 12:33:22;;;;;;;4.57;1.77;;;11.80;70.00;;;;;;5096257;28;20032;-66
2022/11/26 12:35:56;;;;;;;3.00;1.70;;;11.80;68.70;;;;;;5095992;28;20033;-66
2022/11/26 12:38:37;;;;;;;2.70;1.50;;;11.90;68.10;;;;;;5095958;28;20115;-67
2022/11/26 12:41:11;;;;;;;3.80;1.80;;;11.90;68.60;;;;;;5095799;28;20059;-66
2022/11/26 12:44:26;;;;;;;3.75;1.48;;;12.00;68.20;;;;;;5095737;28;20370;-67
2022/11/26 12:47:16;;;;;;;3.65;1.00;;;12.00;68.10;;;;;;5095947;28;20008;-68
2022/11/26 12:50:03;;;;;;;8.98;1.60;;;12.00;67.00;;;;;;5095929;28;20028;-70
2022/11/26 12:52:38;;;;;;;3.53;1.30;;;12.00;66.50;;;;;;5095530;28;20031;-67
2022/11/26 12:55:15;;;;;;;2.85;1.30;;;12.10;66.40;;;;;;5095076;28;20028;-66
2022/11/26 12:58:11;;;;;;;3.55;1.48;;;12.10;66.20;;;;;;5093110;28;20056;-67
2022/11/26 13:00:37;;;;;;;2.55;1.50;;;12.10;65.70;;;;;;5092113;28;20040;-67
2022/11/26 13:03:11;;;;;;;6.55;1.40;;;12.10;65.90;;;;;;5092038;28;20044;-67
2022/11/26 13:06:00;;;;;;;2.88;1.40;;;12.10;64.60;;;;;;5091951;28;20021;-67
2022/11/26 13:08:45;;;;;;;3.50;1.48;;;12.10;65.20;;;;;;5095069;28;20519;-67
2022/11/26 13:11:35;;;;;;;2.63;1.50;;;12.10;64.60;;;;;;5095043;28;20021;-66
2022/11/26 13:14:06;;;;;;;3.05;1.50;;;12.10;64.70;;;;;;5095045;28;20020;-67
2022/11/26 13:16:44;;;;;;;2.03;1.30;;;12.10;64.10;;;;;;5094884;28;20028;-67
2022/11/26 13:19:42;;;;;;;2.20;1.23;;;12.20;64.50;;;;;;5094673;28;20477;-70
2022/11/26 13:22:39;;;;;;;4.10;1.20;;;12.20;64.80;;;;;;5094855;28;20110;-67
2022/11/26 13:25:41;;;;;;;2.50;1.55;;;12.20;64.90;;;;;;5094538;28;20048;-66
2022/11/26 13:28:26;;;;;;;1.85;1.15;;;12.30;64.40;;;;;;5094455;28;20074;-66
2022/11/26 13:31:31;;;;;;;2.95;1.30;;;12.30;63.90;;;;;;5094838;28;20059;-67
2022/11/26 13:34:17;;;;;;;2.45;1.58;;;12.20;63.40;;;;;;5094876;28;20058;-66
2022/11/26 13:36:49;;;;;;;2.78;1.40;;;12.30;63.80;;;;;;5094347;28;20027;-67
2022/11/26 13:39:36;;;;;;;5.68;2.15;;;12.30;63.80;;;;;;5094243;28;20016;-67
2022/11/26 13:42:29;;;;;;;4.90;1.55;;;12.30;63.00;;;;;;5093881;28;20038;-66
2022/11/26 13:45:38;;;;;;;3.20;1.40;;;12.30;63.30;;;;;;5092847;28;20436;-67
2022/11/26 13:48:33;;;;;;;2.55;1.70;;;12.30;63.70;;;;;;5082312;28;20036;-67
2022/11/26 13:51:19;;;;;;;3.10;1.77;;;12.20;63.30;;;;;;5090637;28;20474;-67
2022/11/26 13:54:03;;;;;;;1.85;1.10;;;12.20;64.10;;;;;;5086677;28;20123;-67
2022/11/26 13:56:31;;;;;;;2.85;1.33;;;12.20;63.50;;;;;;5091225;28;20039;-67
2022/11/26 13:59:07;;;;;;;2.78;1.33;;;12.20;63.10;;;;;;5091574;28;20113;-67
2022/11/26 14:01:38;;;;;;;3.15;1.48;;;12.20;63.40;;;;;;5091138;28;20077;-66
2022/11/26 14:04:08;;;;;;;4.65;1.50;;;12.20;62.40;;;;;;5091021;28;20028;-66
2022/11/26 14:06:34;;;;;;;3.35;1.48;;;12.20;62.70;;;;;;5092958;28;20039;-67
2022/11/26 14:09:01;;;;;;;2.72;1.38;;;12.10;62.40;;;;;;5093931;28;20063;-66
2022/11/26 14:11:45;;;;;;;2.08;0.90;;;12.10;63.40;;;;;;5094302;28;20112;-66
2022/11/26 14:14:25;;;;;;;1.67;0.80;;;12.20;58.80;;;;;;5094226;28;20024;-66
2022/11/26 14:17:00;;;;;;;2.90;0.90;;;12.10;59.50;;;;;;5093255;28;20098;-66
2022/11/26 14:19:41;;;;;;;1.98;0.73;;;12.10;60.90;;;;;;5093659;28;20073;-67
2022/11/26 14:22:20;;;;;;;4.45;1.20;;;12.10;58.80;;;;;;5093688;28;20467;-66
2022/11/26 14:24:49;;;;;;;2.88;1.38;;;12.10;58.60;;;;;;5092309;28;20044;-66
2022/11/26 14:27:22;;;;;;;2.13;1.30;;;12.10;59.80;;;;;;5093870;28;20024;-66
2022/11/26 14:30:06;;;;;;;3.65;1.50;;;12.10;60.60;;;;;;5093688;28;20020;-66
2022/11/26 14:32:46;;;;;;;5.13;1.52;;;12.10;60.70;;;;;;5093564;28;20020;-66
2022/11/26 14:35:28;;;;;;;2.75;1.35;;;12.00;60.70;;;;;;5093567;28;20024;-66
2022/11/26 14:37:57;;;;;;;2.72;1.23;;;12.00;61.50;;;;;;5093613;28;20031;-66
2022/11/26 14:40:25;;;;;;;2.80;1.63;;;11.90;61.40;;;;;;5093571;28;20428;-67
2022/11/26 14:43:14;;;;;;;2.70;1.42;;;11.90;62.30;;;;;;5093445;28;20051;-66
2022/11/26 14:45:45;;;;;;;1.65;1.13;;;11.90;61.40;;;;;;5093569;28;20020;-66
2022/11/26 14:48:26;;;;;;;2.88;1.40;;;11.90;60.80;;;;;;5093456;28;20020;-66
2022/11/26 14:50:53;;;;;;;2.40;1.35;;;11.90;60.20;;;;;;5093383;28;20048;-66
2022/11/26 14:53:21;;;;;;;2.70;1.55;;;11.90;61.80;;;;;;5093131;28;20439;-67
2022/11/26 14:55:48;;;;;;;2.35;1.30;;;11.90;61.50;;;;;;5093178;28;20024;-66
2022/11/26 14:58:25;;;;;;;4.78;1.60;;;11.90;61.10;;;;;;5093159;28;20081;-67
2022/11/26 15:01:00;;;;;;;4.47;1.90;;;11.90;61.70;;;;;;5093167;28;20043;-67
2022/11/26 15:03:26;;;;;;;3.28;1.65;;;11.80;62.50;;;;;;5091993;28;20044;-70
2022/11/26 15:05:52;;;;;;;4.50;2.30;;;11.80;62.80;;;;;;5093140;28;20028;-66
2022/11/26 15:08:19;;;;;;;3.83;2.03;;;11.80;62.10;;;;;;5093312;28;20032;-66
2022/11/26 15:10:54;;;;;;;3.67;1.40;;;11.80;62.10;;;;;;5093228;28;20045;-66
2022/11/26 15:13:32;;;;;;;4.13;1.23;;;11.80;61.20;;;;;;5093102;28;20118;-66
2022/11/26 15:16:00;;;;;;;7.10;1.70;;;11.80;60.20;;;;;;5093211;28;20115;-66
2022/11/26 15:18:29;;;;;;;5.68;1.60;;;11.80;60.40;;;;;;5092797;28;20024;-66
2022/11/26 15:20:56;;;;;;;5.80;2.03;;;11.70;61.50;;;;;;5091585;28;20068;-67
2022/11/26 15:23:31;;;;;;;4.22;1.70;;;11.70;62.10;;;;;;5092426;28;20048;-67
2022/11/26 15:25:59;;;;;;;5.05;1.80;;;11.70;62.50;;;;;;5092472;28;20020;-66
2022/11/26 15:28:24;;;;;;;3.85;1.90;;;11.60;62.60;;;;;;5093180;28;20026;-67
2022/11/26 15:31:01;;;;;;;5.55;1.67;;;11.60;62.60;;;;;;5090681;28;20106;-67
2022/11/26 15:33:29;;;;;;;4.38;1.67;;;11.60;64.20;;;;;;5090009;28;20539;-69
2022/11/26 15:35:58;;;;;;;3.90;1.70;;;11.50;62.40;;;;;;5093899;28;20043;-68
2022/11/26 15:38:28;;;;;;;2.70;1.83;;;11.50;60.40;;;;;;5096636;28;20127;-69
2022/11/26 15:41:11;;;;;;;3.83;2.30;;;11.60;60.50;;;;;;5096838;28;20032;-69
2022/11/26 15:44:02;;;;;;;4.03;2.45;;;11.50;60.70;;;;;;5096311;28;20103;-69
2022/11/26 15:46:29;;;;;;;4.55;2.08;;;11.50;61.80;;;;;;5096372;28;20081;-70
2022/11/26 15:48:58;;;;;;;4.32;2.20;;;11.40;62.70;;;;;;5096466;28;20038;-69
2022/11/26 15:51:30;;;;;;;6.28;2.20;;;11.50;63.50;;;;;;5095961;28;20438;-68
2022/11/26 15:53:56;;;;;;;5.40;2.53;;;11.40;62.70;;;;;;5096011;28;20023;-68
2022/11/26 15:56:26;;;;;;;5.53;2.50;;;11.40;64.20;;;;;;5096069;28;20024;-70
2022/11/26 15:59:05;;;;;;;5.13;2.13;;;11.30;64.60;;;;;;5095951;28;20051;-68
2022/11/26 16:01:34;;;;;;;6.05;2.72;;;11.30;64.60;;;;;;5095519;28;20024;-72
2022/11/26 16:04:03;;;;;;;3.63;2.08;;;11.20;65.00;;;;;;5094262;28;20439;-69
2022/11/26 16:06:31;;;;;;;5.70;2.55;;;11.20;64.90;;;;;;5095525;28;20103;-69
2022/11/26 16:09:24;;;;;;;4.35;2.70;;;11.10;65.10;;;;;;5094010;28;20493;-70
2022/11/26 16:11:58;;;;;;;4.65;2.10;;;11.10;63.80;;;;;;5095382;28;20054;-70
2022/11/26 16:14:38;;;;;;;5.57;2.45;;;11.00;64.30;;;;;;5095808;28;20470;-69
2022/11/26 16:17:16;;;;;;;7.25;3.78;;;11.00;65.80;;;;;;5094799;28;20491;-69
2022/11/26 16:19:55;;;;;;;4.20;2.88;;;11.00;65.90;;;;;;5094470;28;20099;-69
2022/11/26 16:22:23;;;;;;;5.80;2.50;;;10.90;65.30;;;;;;5094290;28;20031;-70
2022/11/26 16:25:15;;;;;;;4.78;2.55;;;10.90;66.50;;;;;;5095610;28;20079;-72
2022/11/26 16:27:40;;;;;;;4.28;2.70;;;10.90;66.10;;;;;;5095619;28;20032;-70
2022/11/26 16:30:13;;;;;;;4.78;2.70;;;10.90;66.00;;;;;;5095760;28;20381;-70
2022/11/26 16:32:39;;;;;;;6.60;2.50;;;10.90;66.60;;;;;;5095841;28;20055;-71
2022/11/26 16:35:05;;;;;;;3.15;2.20;;;10.90;67.00;;;;;;5095897;28;20075;-69
2022/11/26 16:37:30;;;;;;;4.22;2.78;;;10.80;66.90;;;;;;5095699;28;20103;-69
2022/11/26 16:40:13;;;;;;;4.68;2.92;;;10.80;67.20;;;;;;5095936;28;20111;-69
2022/11/26 16:42:39;;;;;;;5.47;3.70;;;10.80;67.40;;;;;;5095612;28;20040;-69
2022/11/26 16:45:05;;;;;;;5.28;3.70;;;10.70;67.30;;;;;;5094801;28;20372;-68
2022/11/26 16:47:35;;;;;;;5.18;3.28;;;10.70;67.10;;;;;;5095647;28;20045;-68
2022/11/26 16:50:03;;;;;;;6.55;3.65;;;10.60;67.50;;;;;;5095399;28;20051;-68
2022/11/26 16:52:29;;;;;;;7.10;4.13;;;10.60;67.00;;;;;;5095300;28;20024;-69
2022/11/26 16:54:54;;;;;;;5.93;4.00;;;10.60;68.20;;;;;;5095200;28;20095;-69
2022/11/26 16:57:26;;;;;;;8.05;4.10;;;10.60;68.70;;;;;;5094256;28;20073;-69
2022/11/26 16:59:58;;;;;;;6.32;3.88;;;10.60;68.10;;;;;;5095129;28;20516;-68
2022/11/26 17:02:23;;;;;;;7.05;4.28;;;10.50;68.40;;;;;;5095123;28;20028;-69
2022/11/26 17:04:49;;;;;;;9.90;4.40;;;10.50;69.10;;;;;;5095243;28;20530;-68
2022/11/26 17:07:22;;;;;;;6.75;4.15;;;10.40;70.20;;;;;;5092970;28;20370;-69
2022/11/26 17:09:48;;;;;;;7.50;4.40;;;10.40;69.50;;;;;;5092400;28;20046;-70
2022/11/26 17:12:16;;;;;;;8.10;4.55;;;10.40;68.80;;;;;;5092663;28;20032;-69
2022/11/26 17:14:42;;;;;;;7.22;4.40;;;10.30;69.70;;;;;;5094748;28;20607;-68
2022/11/26 17:17:12;;;;;;;9.80;4.35;;;10.30;70.10;;;;;;5094688;28;20073;-68
2022/11/26 17:19:37;;;;;;;6.10;4.00;;;10.20;69.20;;;;;;5094217;28;20016;-68
2022/11/26 17:22:03;;;;;;;13.40;5.82;;;10.20;70.50;;;;;;5094696;28;20086;-69
2022/11/26 17:24:29;;;;;;;9.88;4.32;;;10.20;70.90;;;;;;5094503;28;20056;-68
2022/11/26 17:26:55;;;;;;;20.80;5.60;;;10.10;71.20;;;;;;5094352;28;20023;-68
2022/11/26 17:29:21;;;;;;;22.50;6.95;;;10.10;70.50;;;;;;5094321;28;20016;-68
2022/11/26 17:31:46;;;;;;;11.88;6.32;;;10.10;70.20;;;;;;5094277;28;20032;-68
2022/11/26 17:34:12;;;;;;;11.05;6.13;;;10.00;70.70;;;;;;5094313;28;20027;-69
2022/11/26 17:36:38;;;;;;;10.80;6.15;;;10.00;70.60;;;;;;5094588;28;20024;-69
2022/11/26 17:39:03;;;;;;;14.70;6.40;;;10.00;71.20;;;;;;5094317;28;20028;-69
2022/11/26 17:41:29;;;;;;;8.63;5.75;;;10.00;71.40;;;;;;5094549;28;20036;-68
2022/11/26 17:43:54;;;;;;;11.00;6.30;;;9.80;72.20;;;;;;5094464;28;20508;-68
2022/11/26 17:46:21;;;;;;;10.87;7.33;;;9.80;71.80;;;;;;5094686;28;20062;-68
2022/11/26 17:48:48;;;;;;;11.27;7.50;;;9.80;71.90;;;;;;5094405;28;20056;-68
2022/11/26 17:51:14;;;;;;;14.37;7.77;;;9.70;72.50;;;;;;5094527;28;20457;-68
2022/11/26 17:53:41;;;;;;;11.73;7.03;;;9.80;73.30;;;;;;5094268;28;20108;-68
2022/11/26 17:56:16;;;;;;;13.57;7.93;;;9.70;72.60;;;;;;5094069;28;20031;-69
2022/11/26 17:58:41;;;;;;;14.20;8.23;;;9.70;72.60;;;;;;5094002;28;20028;-68
2022/11/26 18:01:07;;;;;;;20.73;9.33;;;9.60;72.90;;;;;;5094166;28;20043;-69
2022/11/26 18:03:32;;;;;;;18.00;9.97;;;9.70;72.60;;;;;;5094044;28;20068;-68
2022/11/26 18:05:58;;;;;;;14.90;9.40;;;9.60;72.70;;;;;;5094065;28;20035;-68
2022/11/26 18:08:24;;;;;;;18.87;9.40;;;9.60;73.20;;;;;;5094008;28;20046;-69
2022/11/26 18:10:49;;;;;;;15.50;10.97;;;9.50;73.70;;;;;;5094070;28;20111;-68
2022/11/26 18:29:29;;;;;;;10.50;7.68;;;9.40;73.90;;;;;;5111062;27;20388;-68
2022/11/26 18:31:55;;;;;;;12.18;7.60;;;9.50;74.70;;;;;;5110780;28;20481;-69
2022/11/26 18:34:21;;;;;;;13.30;6.80;;;9.40;73.60;;;;;;5107434;28;20032;-69
2022/11/26 18:36:47;;;;;;;11.03;6.23;;;9.50;73.50;;;;;;5107949;28;20548;-68
2022/11/26 18:39:16;;;;;;;7.90;5.80;;;9.40;73.50;;;;;;5108033;28;20027;-69
2022/11/26 18:41:41;;;;;;;10.37;6.20;;;9.40;74.50;;;;;;5110545;28;20054;-69
2022/11/26 18:44:08;;;;;;;11.60;6.80;;;9.30;74.60;;;;;;5109936;28;20389;-69
2022/11/26 18:46:34;;;;;;;12.13;7.27;;;9.40;74.50;;;;;;5110239;28;20024;-68
2022/11/26 18:49:00;;;;;;;10.67;6.77;;;9.40;74.40;;;;;;5110335;28;20125;-68
2022/11/26 18:51:26;;;;;;;9.70;6.37;;;9.40;74.50;;;;;;5110399;28;20038;-68
2022/11/26 18:53:51;;;;;;;9.03;5.80;;;9.40;74.70;;;;;;5109994;28;20099;-68
2022/11/26 18:56:21;;;;;;;7.40;4.33;;;9.30;74.60;;;;;;5107092;28;20024;-69
2022/11/26 18:58:47;;;;;;;5.67;3.30;;;9.40;74.60;;;;;;5107394;28;20027;-69
2022/11/26 19:01:15;;;;;;;6.27;3.57;;;9.40;74.30;;;;;;5108056;28;20080;-68
2022/11/26 19:03:42;;;;;;;6.43;3.90;;;9.50;74.60;;;;;;5109545;28;20124;-69
2022/11/26 19:06:09;;;;;;;7.43;4.07;;;9.50;74.80;;;;;;5108405;28;20469;-68
2022/11/26 19:08:37;;;;;;;9.17;4.90;;;9.50;74.90;;;;;;5109493;28;20036;-68
2022/11/26 19:11:10;;;;;;;11.07;6.70;;;9.50;74.80;;;;;;5109357;28;20028;-68
2022/11/26 19:13:36;;;;;;;9.00;6.73;;;9.50;74.60;;;;;;5109228;28;20091;-68
2022/11/26 19:16:07;;;;;;;10.90;6.53;;;9.50;74.50;;;;;;5109615;28;20103;-68
2022/11/26 19:18:33;;;;;;;9.50;5.73;;;9.50;74.60;;;;;;5108674;28;20373;-69
2022/11/26 19:20:59;;;;;;;8.30;5.10;;;9.50;74.40;;;;;;5108168;28;20020;-68
2022/11/26 19:23:27;;;;;;;9.23;4.60;;;9.50;74.80;;;;;;5108579;28;20046;-68
2022/11/26 19:25:56;;;;;;;6.73;4.20;;;9.50;75.20;;;;;;5109323;28;20069;-68
2022/11/26 19:28:26;;;;;;;7.30;4.73;;;9.50;75.50;;;;;;5107320;28;20131;-69
2022/11/26 19:31:02;;;;;;;7.77;5.13;;;9.50;75.60;;;;;;5096228;28;20024;-68
2022/11/26 19:33:28;;;;;;;7.37;4.57;;;9.50;75.60;;;;;;5095561;28;20101;-68
2022/11/26 19:35:55;;;;;;;7.07;4.43;;;9.50;75.80;;;;;;5096223;28;20028;-68
2022/11/26 19:38:21;;;;;;;9.47;4.80;;;9.60;75.10;;;;;;5095636;28;20028;-67
2022/11/26 19:40:47;;;;;;;7.70;4.50;;;9.60;75.10;;;;;;5095181;28;20099;-69
2022/11/26 19:43:13;;;;;;;8.53;4.90;;;9.60;75.00;;;;;;5094184;28;20107;-68
2022/11/26 19:45:39;;;;;;;7.77;4.90;;;9.60;75.00;;;;;;5093037;28;20040;-69
2022/11/26 19:48:04;;;;;;;7.37;4.87;;;9.60;74.80;;;;;;5093874;28;20024;-68
2022/11/26 19:50:30;;;;;;;6.13;4.07;;;9.60;74.90;;;;;;5095509;28;20024;-68
2022/11/26 19:52:56;;;;;;;6.57;4.60;;;9.60;74.70;;;;;;5095432;28;20066;-68
2022/11/26 19:55:21;;;;;;;7.40;4.80;;;9.60;74.90;;;;;;5095450;28;20025;-68
2022/11/26 19:57:47;;;;;;;7.30;4.93;;;9.60;75.30;;;;;;5095482;28;20477;-68
2022/11/26 20:00:13;;;;;;;6.67;4.40;;;9.60;75.40;;;;;;5092263;28;20030;-69
2022/11/26 20:02:39;;;;;;;5.90;4.50;;;9.60;75.50;;;;;;5092532;28;20031;-69
2022/11/26 20:05:05;;;;;;;6.90;4.70;;;9.60;75.90;;;;;;5093332;28;20023;-68
2022/11/26 20:07:30;;;;;;;6.37;4.20;;;9.60;75.30;;;;;;5094931;28;20030;-68
2022/11/26 20:09:56;;;;;;;10.13;5.57;;;9.60;75.60;;;;;;5095247;28;20065;-68
2022/11/26 20:12:22;;;;;;;6.40;4.27;;;9.50;75.60;;;;;;5095109;28;20028;-68
2022/11/26 20:14:48;;;;;;;9.03;4.50;;;9.50;75.50;;;;;;5094694;28;20021;-68
2022/11/26 20:17:13;;;;;;;6.70;4.00;;;9.40;76.20;;;;;;5095022;28;20098;-68
2022/11/26 20:19:39;;;;;;;7.80;4.83;;;9.50;76.40;;;;;;5094970;28;20024;-68
2022/11/26 20:22:05;;;;;;;9.87;5.10;;;9.40;76.20;;;;;;5094712;28;20072;-67
2022/11/26 20:24:30;;;;;;;9.63;5.10;;;9.40;76.30;;;;;;5095132;28;20028;-68
2022/11/26 20:26:56;;;;;;;9.27;4.53;;;9.40;76.10;;;;;;5094923;28;20020;-68
2022/11/26 20:29:22;;;;;;;7.17;4.67;;;9.40;76.70;;;;;;5093227;28;20047;-68
2022/11/26 20:31:50;;;;;;;7.97;4.90;;;9.40;76.70;;;;;;5094657;28;20377;-68
2022/11/26 20:34:18;;;;;;;7.20;4.50;;;9.40;76.40;;;;;;5094889;28;20070;-68
2022/11/26 20:36:44;;;;;;;9.20;4.60;;;9.30;76.80;;;;;;5094510;28;20016;-68
2022/11/26 20:39:15;;;;;;;7.43;4.80;;;9.30;76.90;;;;;;5094655;28;20028;-68
2022/11/26 20:41:41;;;;;;;7.27;4.40;;;9.30;76.80;;;;;;5093655;28;20078;-68
2022/11/26 20:44:08;;;;;;;7.40;4.93;;;9.30;76.90;;;;;;5094095;28;20107;-68
2022/11/26 20:46:35;;;;;;;9.40;5.20;;;9.30;77.60;;;;;;5094367;28;20047;-68
2022/11/26 20:49:02;;;;;;;10.37;5.17;;;9.30;77.10;;;;;;5094471;28;20036;-69
2022/11/26 20:51:28;;;;;;;9.87;5.33;;;9.20;76.90;;;;;;5094503;28;20020;-68
2022/11/26 20:53:57;;;;;;;8.17;5.10;;;9.20;77.30;;;;;;5094313;28;20509;-69